createdAt,value
2019-05-25T00:01:53.286Z,41.70
2019-05-25T00:04:45.634Z,41.70
2019-05-25T00:07:38.044Z,41.70
2019-05-25T00:10:30.191Z,41.70
2019-05-25T00:13:22.563Z,41.70
2019-05-25T00:16:14.645Z,41.80
2019-05-25T00:19:07.125Z,41.80
2019-05-25T00:21:59.381Z,41.70
2019-05-25T00:24:51.656Z,41.80
2019-05-25T00:27:43.985Z,41.80
2019-05-25T00:30:36.492Z,41.80
2019-05-25T00:33:28.985Z,41.80
2019-05-25T00:36:21.722Z,41.80
2019-05-25T00:39:13.947Z,41.70
2019-05-25T00:42:06.014Z,41.70
2019-05-25T00:44:57.946Z,41.70
2019-05-25T00:47:50.134Z,41.70
2019-05-25T00:50:42.173Z,41.70
2019-05-25T00:53:34.471Z,41.70
2019-05-25T00:56:26.853Z,41.70
2019-05-25T00:59:19.215Z,41.60
2019-05-25T01:02:11.738Z,41.60
2019-05-25T01:05:04.337Z,41.60
2019-05-25T01:07:56.797Z,41.60
2019-05-25T01:10:49.187Z,41.50
2019-05-25T01:13:41.657Z,41.50
2019-05-25T01:16:33.698Z,41.50
2019-05-25T01:19:26.108Z,41.40
2019-05-25T01:22:18.214Z,41.50
2019-05-25T01:25:10.892Z,41.40
2019-05-25T01:28:03.109Z,41.40
2019-05-25T01:30:55.538Z,41.40
2019-05-25T01:33:47.706Z,41.50
2019-05-25T01:36:40.245Z,41.40
2019-05-25T01:39:32.974Z,41.40
2019-05-25T01:42:25.060Z,41.30
2019-05-25T01:45:17.540Z,41.30
2019-05-25T01:48:09.788Z,41.30
2019-05-25T01:51:02.225Z,41.30
2019-05-25T01:53:54.217Z,41.20
2019-05-25T01:56:46.495Z,41.10
2019-05-25T01:59:38.812Z,41.00
2019-05-25T02:02:31.224Z,40.90
2019-05-25T02:05:23.628Z,40.80
2019-05-25T02:08:15.602Z,40.60
2019-05-25T02:11:08.810Z,40.60
2019-05-25T02:14:01.199Z,40.50
2019-05-25T02:16:53.509Z,40.50
2019-05-25T02:19:45.543Z,40.50
2019-05-25T02:22:37.887Z,40.40
2019-05-25T02:25:29.939Z,40.40
2019-05-25T02:28:22.403Z,40.40
2019-05-25T02:31:14.676Z,40.40
2019-05-25T02:34:07.083Z,40.30
2019-05-25T02:36:59.631Z,40.30
2019-05-25T02:39:52.247Z,40.20
2019-05-25T02:42:44.755Z,40.10
2019-05-25T02:45:37.338Z,40.10
2019-05-25T02:48:29.830Z,40.00
2019-05-25T02:51:22.697Z,40.00
2019-05-25T02:54:15.501Z,39.90
2019-05-25T02:57:08.105Z,39.90
2019-05-25T03:00:01.415Z,39.90
2019-05-25T03:02:54.222Z,39.70
2019-05-25T03:05:47.217Z,39.50
2019-05-25T03:08:39.840Z,40.20
2019-05-25T03:11:32.301Z,39.40
2019-05-25T03:14:26.050Z,39.30
2019-05-25T03:17:18.701Z,39.20
2019-05-25T03:20:11.165Z,39.00
2019-05-25T03:23:03.984Z,38.90
2019-05-25T03:25:56.065Z,38.90
2019-05-25T03:28:48.693Z,38.80
2019-05-25T03:31:41.318Z,38.80
2019-05-25T03:34:33.892Z,38.80
2019-05-25T03:37:26.664Z,38.70
2019-05-25T03:40:21.728Z,38.60
2019-05-25T03:43:14.409Z,38.50
2019-05-25T03:46:07.052Z,38.60
2019-05-25T03:48:59.189Z,38.50
2019-05-25T03:51:51.883Z,38.50
2019-05-25T03:54:44.219Z,38.50
2019-05-25T03:57:36.657Z,38.50
2019-05-25T04:00:38.717Z,38.50
2019-05-25T04:03:39.876Z,38.40
2019-05-25T04:06:35.391Z,38.40
2019-05-25T04:09:28.645Z,38.40
2019-05-25T04:12:21.610Z,38.40
2019-05-25T04:15:14.426Z,38.40
2019-05-25T04:18:07.654Z,38.40
2019-05-25T04:21:00.449Z,38.40
2019-05-25T04:23:53.136Z,38.20
2019-05-25T04:26:47.133Z,37.90
2019-05-25T04:29:39.935Z,37.70
2019-05-25T04:32:32.573Z,37.50
2019-05-25T04:35:26.251Z,37.30
2019-05-25T04:38:18.960Z,37.10
2019-05-25T04:41:11.479Z,37.00
2019-05-25T04:44:07.699Z,36.80
2019-05-25T04:47:01.468Z,36.70
2019-05-25T04:49:54.148Z,35.70
2019-05-25T04:52:47.021Z,34.30
2019-05-25T04:55:45.076Z,33.50
2019-05-25T04:58:37.495Z,32.90
2019-05-25T05:01:30.468Z,32.60
2019-05-25T05:04:25.670Z,32.60
2019-05-25T05:07:19.439Z,32.50
2019-05-25T05:10:12.279Z,32.50
2019-05-25T05:13:07.323Z,32.60
2019-05-25T05:16:00.060Z,32.60
2019-05-25T05:18:52.683Z,32.60
2019-05-25T05:21:45.179Z,32.20
2019-05-25T05:24:37.461Z,32.00
2019-05-25T05:27:31.708Z,32.10
2019-05-25T05:30:26.055Z,32.00
2019-05-25T05:33:18.686Z,32.10
2019-05-25T05:36:18.930Z,31.90
2019-05-25T05:39:18.136Z,32.10
2019-05-25T05:42:12.063Z,32.20
2019-05-25T05:45:06.266Z,32.30
2019-05-25T05:48:00.626Z,32.20
2019-05-25T05:50:55.373Z,32.20
2019-05-25T05:53:53.322Z,32.20
2019-05-25T05:56:53.619Z,32.10
2019-05-25T05:59:51.014Z,32.20
2019-05-25T06:02:43.765Z,32.50
2019-05-25T06:05:37.723Z,32.20
2019-05-25T06:08:31.716Z,32.10
2019-05-25T06:11:25.626Z,32.20
2019-05-25T06:14:33.596Z,32.50
2019-05-25T06:17:30.630Z,32.60
2019-05-25T06:20:25.654Z,32.60
2019-05-25T06:23:21.113Z,32.80
2019-05-25T06:26:16.809Z,32.80
2019-05-25T06:29:09.738Z,32.80
2019-05-25T06:32:03.785Z,32.90
2019-05-25T06:35:01.256Z,32.90
2019-05-25T06:37:57.125Z,32.90
2019-05-25T06:40:53.231Z,32.90
2019-05-25T06:43:51.746Z,33.10
2019-05-25T06:46:45.347Z,33.10
2019-05-25T06:49:40.338Z,33.00
2019-05-25T06:52:34.378Z,33.20
2019-05-25T06:55:27.665Z,33.20
2019-05-25T06:58:21.105Z,33.10
2019-05-25T07:01:15.236Z,33.40
2019-05-25T07:04:09.020Z,34.20
2019-05-25T07:07:02.060Z,34.80
2019-05-25T07:10:02.056Z,34.80
2019-05-25T07:12:53.464Z,34.70
2019-05-25T07:15:49.066Z,34.60
2019-05-25T07:18:44.349Z,34.90
2019-05-25T07:21:37.597Z,34.80
2019-05-25T07:24:32.883Z,34.70
2019-05-25T07:27:29.686Z,34.60
2019-05-25T07:30:23.123Z,34.90
2019-05-25T07:33:16.162Z,34.80
2019-05-25T07:36:11.810Z,34.20
2019-05-25T07:39:08.208Z,34.20
2019-05-25T07:42:01.198Z,34.40
2019-05-25T07:44:54.207Z,34.50
2019-05-25T07:47:48.357Z,34.00
2019-05-25T07:50:42.045Z,34.00
2019-05-25T07:53:36.320Z,34.00
2019-05-25T07:56:29.816Z,34.10
2019-05-25T07:59:26.031Z,34.50
2019-05-25T08:02:21.131Z,34.50
2019-05-25T08:05:14.277Z,34.40
2019-05-25T08:08:06.982Z,34.30
2019-05-25T08:11:01.519Z,34.50
2019-05-25T08:13:53.825Z,34.30
2019-05-25T08:16:47.717Z,34.20
2019-05-25T08:19:40.406Z,34.40
2019-05-25T08:22:33.554Z,34.70
2019-05-25T08:25:26.116Z,34.60
2019-05-25T08:28:31.588Z,34.50
2019-05-25T08:31:12.908Z,33.90
2019-05-25T08:34:05.826Z,33.20
2019-05-25T08:36:58.138Z,32.50
2019-05-25T08:39:50.264Z,32.50
2019-05-25T08:42:42.645Z,32.20
2019-05-25T08:45:35.492Z,32.00
2019-05-25T08:48:29.431Z,32.00
2019-05-25T08:51:22.610Z,32.10
2019-05-25T08:54:15.549Z,31.90
2019-05-25T08:57:08.101Z,32.10
2019-05-25T09:00:01.446Z,32.00
2019-05-25T09:02:56.553Z,32.00
2019-05-25T09:05:51.132Z,32.00
2019-05-25T09:08:45.778Z,32.00
2019-05-25T09:11:39.719Z,32.00
2019-05-25T09:14:34.056Z,32.00
2019-05-25T09:17:28.989Z,32.00
2019-05-25T09:23:23.630Z,32.10
2019-05-25T09:26:16.840Z,32.30
2019-05-25T09:29:10.116Z,32.20
2019-05-25T09:32:07.014Z,32.20
2019-05-25T09:34:58.927Z,32.30
2019-05-25T09:37:52.915Z,32.50
2019-05-25T09:40:47.460Z,32.50
2019-05-25T09:43:41.065Z,32.60
2019-05-25T09:46:34.256Z,32.60
2019-05-25T09:49:27.106Z,32.70
2019-05-25T09:52:20.090Z,32.80
2019-05-25T09:55:14.748Z,32.80
2019-05-25T09:58:08.180Z,32.80
2019-05-25T10:01:01.108Z,32.90
2019-05-25T10:03:56.731Z,32.90
2019-05-25T10:06:49.136Z,32.90
2019-05-25T10:09:42.323Z,32.90
2019-05-25T10:12:35.782Z,32.90
2019-05-25T10:15:29.047Z,32.70
2019-05-25T10:18:23.808Z,32.80
2019-05-25T10:21:19.224Z,32.80
2019-05-25T10:24:13.946Z,32.80
2019-05-25T10:27:08.183Z,32.80
2019-05-25T10:30:04.082Z,32.90
2019-05-25T10:32:58.370Z,33.00
2019-05-25T10:35:52.450Z,33.00
2019-05-25T10:38:48.437Z,32.90
2019-05-25T10:41:42.737Z,32.90
2019-05-25T10:44:40.646Z,32.70
2019-05-25T10:47:33.765Z,32.90
2019-05-25T10:50:32.465Z,32.70
2019-05-25T10:53:25.969Z,32.70
2019-05-25T10:56:19.292Z,32.80
2019-05-25T10:59:14.869Z,32.80
2019-05-25T11:02:08.766Z,32.80
2019-05-25T11:05:02.885Z,32.70
2019-05-25T11:07:57.020Z,32.70
2019-05-25T11:10:49.646Z,32.70
2019-05-25T11:13:47.283Z,32.60
2019-05-25T11:16:39.856Z,32.50
2019-05-25T11:19:32.742Z,32.50
2019-05-25T11:22:29.924Z,32.50
2019-05-25T11:25:25.349Z,32.50
2019-05-25T11:28:19.548Z,32.60
2019-05-25T11:31:15.012Z,32.50
2019-05-25T11:34:13.963Z,32.50
2019-05-25T11:37:08.800Z,32.50
2019-05-25T11:40:05.251Z,32.70
2019-05-25T11:43:12.990Z,32.60
2019-05-25T11:46:08.357Z,32.60
2019-05-25T11:49:21.702Z,32.70
2019-05-25T11:52:04.791Z,32.60
2019-05-25T11:55:00.091Z,32.60
2019-05-25T11:57:54.634Z,32.60
2019-05-25T12:00:51.577Z,32.70
2019-05-25T12:03:44.345Z,32.70
2019-05-25T12:06:38.070Z,32.60
2019-05-25T12:09:31.823Z,32.60
2019-05-25T12:12:26.099Z,32.60
2019-05-25T12:15:20.529Z,32.60
2019-05-25T12:18:16.527Z,32.60
2019-05-25T12:21:10.210Z,32.60
2019-05-25T12:24:03.395Z,32.60
2019-05-25T12:26:55.951Z,32.60
2019-05-25T12:29:50.030Z,32.70
2019-05-25T12:32:43.108Z,32.70
2019-05-25T12:35:35.367Z,32.80
2019-05-25T12:38:27.929Z,32.80
2019-05-25T12:41:20.687Z,32.80
2019-05-25T12:44:13.945Z,32.80
2019-05-25T12:47:08.447Z,32.80
2019-05-25T12:50:02.887Z,32.80
2019-05-25T12:52:56.698Z,32.90
2019-05-25T12:55:50.781Z,33.00
2019-05-25T12:58:45.082Z,33.00
2019-05-25T13:01:37.944Z,33.00
2019-05-25T13:04:30.624Z,33.10
2019-05-25T13:07:23.444Z,33.10
2019-05-25T13:10:16.931Z,33.10
2019-05-25T13:13:11.593Z,33.20
2019-05-25T13:16:04.456Z,33.30
2019-05-25T13:18:57.766Z,33.30
2019-05-25T13:21:50.823Z,33.30
2019-05-25T13:24:43.704Z,33.40
2019-05-25T13:27:37.605Z,33.50
2019-05-25T13:30:32.846Z,33.50
2019-05-25T13:33:27.050Z,33.60
2019-05-25T13:36:22.721Z,33.60
2019-05-25T13:39:20.263Z,33.70
2019-05-25T13:42:14.757Z,33.70
2019-05-25T13:45:09.063Z,33.80
2019-05-25T13:48:01.894Z,33.80
2019-05-25T13:50:54.799Z,33.90
2019-05-25T13:53:49.546Z,33.90
2019-05-25T13:56:44.130Z,34.00
2019-05-25T13:59:36.768Z,34.00
2019-05-25T14:02:30.035Z,34.00
2019-05-25T14:05:22.992Z,34.20
2019-05-25T14:08:16.352Z,34.10
2019-05-25T14:11:10.287Z,34.20
2019-05-25T14:14:03.337Z,34.20
2019-05-25T14:16:55.888Z,34.20
2019-05-25T14:19:48.779Z,34.30
2019-05-25T14:22:43.313Z,34.40
2019-05-25T14:25:36.077Z,34.40
2019-05-25T14:28:33.513Z,34.50
2019-05-25T14:31:44.347Z,34.70
2019-05-25T14:34:26.226Z,34.80
2019-05-25T14:37:20.622Z,34.50
2019-05-25T14:40:14.144Z,34.70
2019-05-25T14:43:07.075Z,34.70
2019-05-25T14:46:01.186Z,34.70
2019-05-25T14:48:54.892Z,34.70
2019-05-25T14:51:48.543Z,34.80
2019-05-25T14:54:42.160Z,34.90
2019-05-25T14:57:36.876Z,34.90
2019-05-25T15:00:29.785Z,34.90
2019-05-25T15:03:23.016Z,34.90
2019-05-25T15:06:20.678Z,35.00
2019-05-25T15:09:11.493Z,35.00
2019-05-25T15:12:05.482Z,35.10
2019-05-25T15:14:59.074Z,35.10
2019-05-25T15:17:52.664Z,35.10
2019-05-25T15:20:46.375Z,35.20
2019-05-25T15:23:40.804Z,35.20
2019-05-25T15:26:34.904Z,35.80
2019-05-25T15:29:29.441Z,35.30
2019-05-25T15:32:24.096Z,35.40
2019-05-25T15:35:20.388Z,35.40
2019-05-25T15:38:15.447Z,35.50
2019-05-25T15:41:10.125Z,35.50
2019-05-25T15:44:05.446Z,35.60
2019-05-25T15:46:59.791Z,35.70
2019-05-25T15:49:54.104Z,35.70
2019-05-25T15:52:47.873Z,35.70
2019-05-25T15:55:42.363Z,35.70
2019-05-25T15:58:36.994Z,35.70
2019-05-25T16:01:33.584Z,35.80
2019-05-25T16:04:27.909Z,35.80
2019-05-25T16:07:21.302Z,35.80
2019-05-25T16:10:15.662Z,35.90
2019-05-25T16:13:10.289Z,36.00
2019-05-25T16:16:05.621Z,36.00
2019-05-25T16:19:00.007Z,36.00
2019-05-25T16:21:54.623Z,36.10
2019-05-25T16:24:49.681Z,36.00
2019-05-25T16:27:43.249Z,36.20
2019-05-25T16:30:37.326Z,36.20
2019-05-25T16:33:30.174Z,36.20
2019-05-25T16:36:23.132Z,36.30
2019-05-25T16:39:16.028Z,36.30
2019-05-25T16:42:08.822Z,36.30
2019-05-25T16:45:05.503Z,36.40
2019-05-25T16:47:55.670Z,36.40
2019-05-25T16:50:48.478Z,36.50
2019-05-25T16:53:42.558Z,36.40
2019-05-25T16:56:35.922Z,36.60
2019-05-25T16:59:29.855Z,36.60
2019-05-25T17:02:23.672Z,36.50
2019-05-25T17:05:17.121Z,36.60
2019-05-25T17:08:10.605Z,36.60
2019-05-25T17:11:03.291Z,36.60
2019-05-25T17:13:56.336Z,36.60
2019-05-25T17:16:48.999Z,36.60
2019-05-25T17:19:42.860Z,36.60
2019-05-25T17:22:36.228Z,36.60
2019-05-25T17:25:29.248Z,36.60
2019-05-25T17:28:22.274Z,36.70
2019-05-25T17:31:15.364Z,36.70
2019-05-25T17:34:08.147Z,36.70
2019-05-25T17:37:00.995Z,36.80
2019-05-25T17:39:54.971Z,36.80
2019-05-25T17:42:48.958Z,36.80
2019-05-25T17:45:42.558Z,36.90
2019-05-25T17:48:35.608Z,36.90
2019-05-25T17:51:30.102Z,36.90
2019-05-25T17:54:23.115Z,37.00
2019-05-25T17:57:17.529Z,37.00
2019-05-25T18:00:11.654Z,37.00
2019-05-25T18:03:04.457Z,37.00
2019-05-25T18:05:57.477Z,37.00
2019-05-25T18:08:50.821Z,37.10
2019-05-25T18:11:43.947Z,37.20
2019-05-25T18:14:37.809Z,37.10
2019-05-25T18:17:30.532Z,37.20
2019-05-25T18:20:25.358Z,37.20
2019-05-25T18:23:18.874Z,37.30
2019-05-25T18:26:11.368Z,37.30
2019-05-25T18:29:03.644Z,37.30
2019-05-25T18:31:56.238Z,37.30
2019-05-25T18:34:48.649Z,37.30
2019-05-25T18:37:41.485Z,37.30
2019-05-25T18:40:34.241Z,37.30
2019-05-25T18:43:27.170Z,37.40
2019-05-25T18:46:20.040Z,37.40
2019-05-25T18:49:14.242Z,37.50
2019-05-25T18:52:08.037Z,37.50
2019-05-25T18:55:00.768Z,37.50
2019-05-25T18:57:54.951Z,37.50
2019-05-25T19:00:48.334Z,37.50
2019-05-25T19:03:41.718Z,37.60
2019-05-25T19:06:34.908Z,37.60
2019-05-25T19:09:28.051Z,37.60
2019-05-25T19:12:21.216Z,37.60
2019-05-25T19:15:13.846Z,37.60
2019-05-25T19:18:06.330Z,37.70
2019-05-25T19:20:58.722Z,37.70
2019-05-25T19:23:51.728Z,37.80
2019-05-25T19:26:46.938Z,37.80
2019-05-25T19:29:40.370Z,37.80
2019-05-25T19:32:33.884Z,37.80
2019-05-25T19:35:27.422Z,37.90
2019-05-25T19:38:19.914Z,37.80
2019-05-25T19:41:12.211Z,37.80
2019-05-25T19:44:04.650Z,37.80
2019-05-25T19:46:56.910Z,37.90
2019-05-25T19:49:49.855Z,37.80
2019-05-25T19:52:43.883Z,37.90
2019-05-25T19:55:38.165Z,38.00
2019-05-25T19:58:32.361Z,38.00
2019-05-25T20:01:25.723Z,38.00
2019-05-25T20:04:18.942Z,38.00
2019-05-25T20:07:13.040Z,38.00
2019-05-25T20:10:06.006Z,38.00
2019-05-25T20:12:59.362Z,38.00
2019-05-25T20:15:53.900Z,38.00
2019-05-25T20:18:47.394Z,38.00
2019-05-25T20:21:40.908Z,38.00
2019-05-25T20:24:35.824Z,38.10
2019-05-25T20:27:29.639Z,38.10
2019-05-25T20:30:23.536Z,38.10
2019-05-25T20:33:27.716Z,38.10
2019-05-25T20:36:14.075Z,38.10
2019-05-25T20:39:08.082Z,38.10
2019-05-25T20:42:01.606Z,38.10
2019-05-25T20:44:55.029Z,38.20
2019-05-25T20:47:47.818Z,38.20
2019-05-25T20:50:40.596Z,38.20
2019-05-25T20:53:33.434Z,38.20
2019-05-25T20:56:26.559Z,38.60
2019-05-25T20:59:19.220Z,38.30
2019-05-25T21:02:11.855Z,38.30
2019-05-25T21:05:04.605Z,38.30
2019-05-25T21:07:56.732Z,38.40
2019-05-25T21:10:49.227Z,38.30
2019-05-25T21:13:41.336Z,38.40
2019-05-25T21:16:33.812Z,38.30
2019-05-25T21:19:26.024Z,38.30
2019-05-25T21:22:18.545Z,38.30
2019-05-25T21:25:11.197Z,38.40
2019-05-25T21:28:03.767Z,38.30
2019-05-25T21:30:55.846Z,38.40
2019-05-25T21:33:48.574Z,38.40
2019-05-25T21:36:43.117Z,38.40
2019-05-25T21:39:34.148Z,38.40
2019-05-25T21:42:26.727Z,38.40
2019-05-25T21:45:19.317Z,38.40
2019-05-25T21:48:11.669Z,38.40
2019-05-25T21:51:04.271Z,38.50
2019-05-25T21:53:56.800Z,38.50
2019-05-25T21:56:49.280Z,38.50
2019-05-25T21:59:41.979Z,38.40
2019-05-25T22:02:34.882Z,38.50
2019-05-25T22:05:30.752Z,38.50
2019-05-25T22:08:22.637Z,38.50
2019-05-25T22:11:16.704Z,38.60
2019-05-25T22:14:08.994Z,38.50
2019-05-25T22:17:01.785Z,38.50
2019-05-25T22:19:54.595Z,38.50
2019-05-25T22:22:47.252Z,38.50
2019-05-25T22:25:40.231Z,38.50
2019-05-25T22:28:44.210Z,38.50
2019-05-25T22:31:27.027Z,38.50
2019-05-25T22:34:19.679Z,38.50
2019-05-25T22:37:12.722Z,38.50
2019-05-25T22:40:05.852Z,38.50
2019-05-25T22:42:58.134Z,38.60
2019-05-25T22:45:51.116Z,38.50
2019-05-25T22:48:43.675Z,38.60
2019-05-25T22:51:36.130Z,38.70
2019-05-25T22:54:28.819Z,38.60
2019-05-25T22:57:21.411Z,38.60
2019-05-25T23:00:14.639Z,38.60
2019-05-25T23:03:06.943Z,39.30
2019-05-25T23:05:59.654Z,38.60
2019-05-25T23:08:52.950Z,38.70
2019-05-25T23:11:45.357Z,38.60
2019-05-25T23:14:38.067Z,38.60
2019-05-25T23:17:31.012Z,38.60
2019-05-25T23:20:24.551Z,38.60
2019-05-25T23:23:17.884Z,38.70
2019-05-25T23:26:11.069Z,38.60
2019-05-25T23:29:03.474Z,38.60
2019-05-25T23:31:55.839Z,38.60
2019-05-25T23:34:48.585Z,38.60
2019-05-25T23:37:41.062Z,38.70
2019-05-25T23:40:33.344Z,38.60
2019-05-25T23:43:26.285Z,38.60
2019-05-25T23:46:18.928Z,38.60
2019-05-25T23:49:12.127Z,38.70
2019-05-25T23:52:04.777Z,38.70
2019-05-25T23:54:57.659Z,38.70
2019-05-25T23:57:50.690Z,38.70
